sensor_id;sensor_type;location;lat;lon;timestamp;P1;durP1;ratioP1;P2;durP2;ratioP2
4148;SDS011;2088;51.032;7.082;2023-04-20T00:02:04;4.57;;;2.70;;
4148;SDS011;2088;51.032;7.082;2023-04-20T00:04:31;8.07;;;2.87;;
4148;SDS011;2088;51.032;7.082;2023-04-20T00:07:00;3.73;;;2.80;;
4148;SDS011;2088;51.032;7.082;2023-04-20T00:09:28;4.70;;;2.50;;
4148;SDS011;2088;51.032;7.082;2023-04-20T00:11:55;4.20;;;2.10;;
4148;SDS011;2088;51.032;7.082;2023-04-20T00:14:22;8.50;;;2.83;;
4148;SDS011;2088;51.032;7.082;2023-04-20T00:16:51;5.33;;;2.53;;
4148;SDS011;2088;51.032;7.082;2023-04-20T00:19:18;4.80;;;2.77;;
4148;SDS011;2088;51.032;7.082;2023-04-20T00:21:46;6.03;;;3.10;;
4148;SDS011;2088;51.032;7.082;2023-04-20T00:24:13;5.80;;;2.90;;
4148;SDS011;2088;51.032;7.082;2023-04-20T00:26:40;6.80;;;2.20;;
4148;SDS011;2088;51.032;7.082;2023-04-20T00:29:07;7.03;;;2.80;;
4148;SDS011;2088;51.032;7.082;2023-04-20T00:31:34;4.27;;;2.13;;
4148;SDS011;2088;51.032;7.082;2023-04-20T00:34:02;8.40;;;2.80;;
4148;SDS011;2088;51.032;7.082;2023-04-20T00:36:29;15.87;;;2.83;;
4148;SDS011;2088;51.032;7.082;2023-04-20T00:38:57;3.27;;;2.70;;
4148;SDS011;2088;51.032;7.082;2023-04-20T00:41:25;3.57;;;2.50;;
4148;SDS011;2088;51.032;7.082;2023-04-20T00:43:52;8.50;;;2.60;;
4148;SDS011;2088;51.032;7.082;2023-04-20T00:46:20;3.80;;;2.80;;
4148;SDS011;2088;51.032;7.082;2023-04-20T00:48:47;4.73;;;2.30;;
4148;SDS011;2088;51.032;7.082;2023-04-20T00:51:16;4.50;;;2.67;;
4148;SDS011;2088;51.032;7.082;2023-04-20T00:53:43;4.80;;;2.43;;
4148;SDS011;2088;51.032;7.082;2023-04-20T00:56:10;3.83;;;2.30;;
4148;SDS011;2088;51.032;7.082;2023-04-20T00:58:38;5.77;;;3.97;;
4148;SDS011;2088;51.032;7.082;2023-04-20T01:01:05;3.50;;;2.67;;
4148;SDS011;2088;51.032;7.082;2023-04-20T01:03:32;4.77;;;2.40;;
4148;SDS011;2088;51.032;7.082;2023-04-20T01:05:59;12.20;;;2.77;;
4148;SDS011;2088;51.032;7.082;2023-04-20T01:08:29;2.90;;;2.43;;
4148;SDS011;2088;51.032;7.082;2023-04-20T01:10:56;5.10;;;2.83;;
4148;SDS011;2088;51.032;7.082;2023-04-20T01:13:23;4.70;;;2.60;;
4148;SDS011;2088;51.032;7.082;2023-04-20T01:15:51;3.23;;;2.40;;
4148;SDS011;2088;51.032;7.082;2023-04-20T01:18:18;4.57;;;3.10;;
4148;SDS011;2088;51.032;7.082;2023-04-20T01:20:45;4.20;;;2.73;;
4148;SDS011;2088;51.032;7.082;2023-04-20T01:23:13;3.37;;;2.53;;
4148;SDS011;2088;51.032;7.082;2023-04-20T01:25:40;5.30;;;2.83;;
4148;SDS011;2088;51.032;7.082;2023-04-20T01:28:07;6.50;;;3.30;;
4148;SDS011;2088;51.032;7.082;2023-04-20T01:30:35;3.20;;;2.90;;
4148;SDS011;2088;51.032;7.082;2023-04-20T01:33:02;5.67;;;2.70;;
4148;SDS011;2088;51.032;7.082;2023-04-20T01:35:30;9.50;;;3.67;;
4148;SDS011;2088;51.032;7.082;2023-04-20T01:37:57;6.20;;;3.17;;
4148;SDS011;2088;51.032;7.082;2023-04-20T01:40:26;3.17;;;2.60;;
4148;SDS011;2088;51.032;7.082;2023-04-20T01:42:53;3.63;;;2.90;;
4148;SDS011;2088;51.032;7.082;2023-04-20T01:45:20;8.50;;;3.00;;
4148;SDS011;2088;51.032;7.082;2023-04-20T01:47:47;6.80;;;2.70;;
4148;SDS011;2088;51.032;7.082;2023-04-20T01:50:14;13.30;;;3.80;;
4148;SDS011;2088;51.032;7.082;2023-04-20T01:52:41;3.20;;;2.90;;
4148;SDS011;2088;51.032;7.082;2023-04-20T01:55:08;9.33;;;3.10;;
4148;SDS011;2088;51.032;7.082;2023-04-20T01:57:37;4.83;;;2.60;;
4148;SDS011;2088;51.032;7.082;2023-04-20T02:00:04;3.03;;;2.60;;
4148;SDS011;2088;51.032;7.082;2023-04-20T02:02:32;4.33;;;3.23;;
4148;SDS011;2088;51.032;7.082;2023-04-20T02:04:59;21.73;;;3.60;;
4148;SDS011;2088;51.032;7.082;2023-04-20T02:07:26;4.80;;;2.93;;
4148;SDS011;2088;51.032;7.082;2023-04-20T02:09:53;9.57;;;3.07;;
4148;SDS011;2088;51.032;7.082;2023-04-20T02:12:21;5.60;;;2.73;;
4148;SDS011;2088;51.032;7.082;2023-04-20T02:14:49;4.90;;;3.07;;
4148;SDS011;2088;51.032;7.082;2023-04-20T02:17:16;5.80;;;2.97;;
4148;SDS011;2088;51.032;7.082;2023-04-20T02:19:43;4.00;;;3.13;;
4148;SDS011;2088;51.032;7.082;2023-04-20T02:22:10;8.73;;;2.67;;
4148;SDS011;2088;51.032;7.082;2023-04-20T02:24:37;4.33;;;3.20;;
4148;SDS011;2088;51.032;7.082;2023-04-20T02:27:05;5.37;;;3.30;;
4148;SDS011;2088;51.032;7.082;2023-04-20T02:29:32;5.80;;;3.40;;
4148;SDS011;2088;51.032;7.082;2023-04-20T02:32:00;4.10;;;2.97;;
4148;SDS011;2088;51.032;7.082;2023-04-20T02:34:27;6.40;;;3.10;;
4148;SDS011;2088;51.032;7.082;2023-04-20T02:36:54;4.23;;;3.20;;
4148;SDS011;2088;51.032;7.082;2023-04-20T02:39:21;5.87;;;2.90;;
4148;SDS011;2088;51.032;7.082;2023-04-20T02:41:49;3.73;;;3.17;;
4148;SDS011;2088;51.032;7.082;2023-04-20T02:44:16;4.43;;;3.00;;
4148;SDS011;2088;51.032;7.082;2023-04-20T02:46:43;6.23;;;2.77;;
4148;SDS011;2088;51.032;7.082;2023-04-20T02:49:11;5.03;;;3.23;;
4148;SDS011;2088;51.032;7.082;2023-04-20T02:51:38;3.77;;;2.80;;
4148;SDS011;2088;51.032;7.082;2023-04-20T02:54:05;5.20;;;2.73;;
4148;SDS011;2088;51.032;7.082;2023-04-20T02:56:32;6.47;;;3.33;;
4148;SDS011;2088;51.032;7.082;2023-04-20T02:58:59;3.40;;;3.10;;
4148;SDS011;2088;51.032;7.082;2023-04-20T03:01:26;7.27;;;4.53;;
4148;SDS011;2088;51.032;7.082;2023-04-20T03:03:53;7.10;;;2.97;;
4148;SDS011;2088;51.032;7.082;2023-04-20T03:06:22;4.20;;;3.80;;
4148;SDS011;2088;51.032;7.082;2023-04-20T03:08:50;4.50;;;3.50;;
4148;SDS011;2088;51.032;7.082;2023-04-20T03:11:18;5.63;;;2.90;;
4148;SDS011;2088;51.032;7.082;2023-04-20T03:13:45;10.47;;;4.83;;
4148;SDS011;2088;51.032;7.082;2023-04-20T03:16:12;3.20;;;2.87;;
4148;SDS011;2088;51.032;7.082;2023-04-20T03:18:39;5.77;;;3.60;;
4148;SDS011;2088;51.032;7.082;2023-04-20T03:21:06;5.37;;;2.93;;
4148;SDS011;2088;51.032;7.082;2023-04-20T03:23:34;7.27;;;3.93;;
4148;SDS011;2088;51.032;7.082;2023-04-20T03:26:01;7.27;;;3.70;;
4148;SDS011;2088;51.032;7.082;2023-04-20T03:28:29;4.57;;;2.70;;
4148;SDS011;2088;51.032;7.082;2023-04-20T03:30:56;9.17;;;2.90;;
4148;SDS011;2088;51.032;7.082;2023-04-20T03:33:23;4.80;;;3.13;;
4148;SDS011;2088;51.032;7.082;2023-04-20T03:35:51;6.93;;;3.20;;
4148;SDS011;2088;51.032;7.082;2023-04-20T03:38:18;5.90;;;3.43;;
4148;SDS011;2088;51.032;7.082;2023-04-20T03:40:47;5.60;;;3.50;;
4148;SDS011;2088;51.032;7.082;2023-04-20T03:43:14;4.10;;;2.80;;
4148;SDS011;2088;51.032;7.082;2023-04-20T03:45:41;4.90;;;3.33;;
4148;SDS011;2088;51.032;7.082;2023-04-20T03:48:08;9.27;;;3.37;;
4148;SDS011;2088;51.032;7.082;2023-04-20T03:50:35;3.30;;;2.80;;
4148;SDS011;2088;51.032;7.082;2023-04-20T03:53:02;3.93;;;2.80;;
4148;SDS011;2088;51.032;7.082;2023-04-20T03:55:30;5.33;;;3.40;;
4148;SDS011;2088;51.032;7.082;2023-04-20T03:57:58;14.40;;;3.30;;
4148;SDS011;2088;51.032;7.082;2023-04-20T04:00:25;6.60;;;2.60;;
4148;SDS011;2088;51.032;7.082;2023-04-20T04:02:52;7.70;;;2.90;;
4148;SDS011;2088;51.032;7.082;2023-04-20T04:05:19;7.53;;;2.60;;
4148;SDS011;2088;51.032;7.082;2023-04-20T04:07:46;6.13;;;3.10;;
4148;SDS011;2088;51.032;7.082;2023-04-20T04:10:13;6.23;;;3.20;;
4148;SDS011;2088;51.032;7.082;2023-04-20T04:12:41;6.63;;;3.23;;
4148;SDS011;2088;51.032;7.082;2023-04-20T04:15:10;8.97;;;2.70;;
4148;SDS011;2088;51.032;7.082;2023-04-20T04:17:37;5.07;;;3.77;;
4148;SDS011;2088;51.032;7.082;2023-04-20T04:20:05;6.53;;;2.77;;
4148;SDS011;2088;51.032;7.082;2023-04-20T04:22:32;4.33;;;3.00;;
4148;SDS011;2088;51.032;7.082;2023-04-20T04:24:59;4.60;;;2.77;;
4148;SDS011;2088;51.032;7.082;2023-04-20T04:27:27;3.03;;;2.73;;
4148;SDS011;2088;51.032;7.082;2023-04-20T04:29:59;5.93;;;3.50;;
4148;SDS011;2088;51.032;7.082;2023-04-20T04:32:28;4.30;;;2.87;;
4148;SDS011;2088;51.032;7.082;2023-04-20T04:34:55;13.50;;;3.63;;
4148;SDS011;2088;51.032;7.082;2023-04-20T04:37:24;3.40;;;2.77;;
4148;SDS011;2088;51.032;7.082;2023-04-20T04:39:52;4.70;;;2.80;;
4148;SDS011;2088;51.032;7.082;2023-04-20T04:42:19;5.23;;;3.40;;
4148;SDS011;2088;51.032;7.082;2023-04-20T04:44:46;6.40;;;2.67;;
4148;SDS011;2088;51.032;7.082;2023-04-20T04:47:15;2.97;;;2.73;;
4148;SDS011;2088;51.032;7.082;2023-04-20T04:49:45;4.50;;;2.10;;
4148;SDS011;2088;51.032;7.082;2023-04-20T04:52:12;4.00;;;2.70;;
4148;SDS011;2088;51.032;7.082;2023-04-20T04:54:39;4.73;;;3.10;;
4148;SDS011;2088;51.032;7.082;2023-04-20T04:57:06;7.07;;;3.67;;
4148;SDS011;2088;51.032;7.082;2023-04-20T04:59:33;21.40;;;3.50;;
4148;SDS011;2088;51.032;7.082;2023-04-20T05:02:00;9.13;;;3.17;;
4148;SDS011;2088;51.032;7.082;2023-04-20T05:04:28;8.83;;;2.80;;
4148;SDS011;2088;51.032;7.082;2023-04-20T05:06:56;4.47;;;2.87;;
4148;SDS011;2088;51.032;7.082;2023-04-20T05:09:23;3.73;;;2.90;;
4148;SDS011;2088;51.032;7.082;2023-04-20T05:11:50;6.30;;;4.83;;
4148;SDS011;2088;51.032;7.082;2023-04-20T05:14:17;11.93;;;4.60;;
4148;SDS011;2088;51.032;7.082;2023-04-20T05:16:44;3.50;;;3.10;;
4148;SDS011;2088;51.032;7.082;2023-04-20T05:19:11;3.77;;;3.47;;
4148;SDS011;2088;51.032;7.082;2023-04-20T05:21:38;5.90;;;3.30;;
4148;SDS011;2088;51.032;7.082;2023-04-20T05:24:07;5.13;;;3.10;;
4148;SDS011;2088;51.032;7.082;2023-04-20T05:26:34;4.33;;;3.80;;
4148;SDS011;2088;51.032;7.082;2023-04-20T05:29:01;6.67;;;4.00;;
4148;SDS011;2088;51.032;7.082;2023-04-20T05:31:28;5.30;;;3.93;;
4148;SDS011;2088;51.032;7.082;2023-04-20T05:33:57;7.40;;;3.90;;
4148;SDS011;2088;51.032;7.082;2023-04-20T05:36:24;6.63;;;3.93;;
4148;SDS011;2088;51.032;7.082;2023-04-20T05:38:51;4.20;;;3.67;;
4148;SDS011;2088;51.032;7.082;2023-04-20T05:41:19;5.73;;;4.30;;
4148;SDS011;2088;51.032;7.082;2023-04-20T05:43:50;6.70;;;4.20;;
4148;SDS011;2088;51.032;7.082;2023-04-20T05:46:17;6.13;;;4.13;;
4148;SDS011;2088;51.032;7.082;2023-04-20T05:48:44;10.97;;;4.50;;
4148;SDS011;2088;51.032;7.082;2023-04-20T05:51:12;10.13;;;3.63;;
4148;SDS011;2088;51.032;7.082;2023-04-20T05:53:39;5.57;;;3.87;;
4148;SDS011;2088;51.032;7.082;2023-04-20T05:56:06;6.17;;;4.03;;
4148;SDS011;2088;51.032;7.082;2023-04-20T05:58:35;6.50;;;3.17;;
4148;SDS011;2088;51.032;7.082;2023-04-20T06:01:02;5.30;;;3.63;;
4148;SDS011;2088;51.032;7.082;2023-04-20T06:03:29;10.50;;;3.80;;
4148;SDS011;2088;51.032;7.082;2023-04-20T06:05:56;9.20;;;4.70;;
4148;SDS011;2088;51.032;7.082;2023-04-20T06:08:23;10.90;;;3.77;;
4148;SDS011;2088;51.032;7.082;2023-04-20T06:10:52;5.83;;;4.10;;
4148;SDS011;2088;51.032;7.082;2023-04-20T06:13:20;8.13;;;3.67;;
4148;SDS011;2088;51.032;7.082;2023-04-20T06:15:48;13.87;;;4.97;;
4148;SDS011;2088;51.032;7.082;2023-04-20T06:18:16;5.10;;;3.70;;
4148;SDS011;2088;51.032;7.082;2023-04-20T06:20:43;6.47;;;3.57;;
4148;SDS011;2088;51.032;7.082;2023-04-20T06:23:11;7.53;;;4.30;;
4148;SDS011;2088;51.032;7.082;2023-04-20T06:25:38;8.50;;;4.00;;
4148;SDS011;2088;51.032;7.082;2023-04-20T06:28:05;4.70;;;4.30;;
4148;SDS011;2088;51.032;7.082;2023-04-20T06:30:32;5.00;;;4.30;;
4148;SDS011;2088;51.032;7.082;2023-04-20T06:33:01;7.37;;;4.13;;
4148;SDS011;2088;51.032;7.082;2023-04-20T06:35:28;6.57;;;3.70;;
4148;SDS011;2088;51.032;7.082;2023-04-20T06:37:55;10.50;;;4.57;;
4148;SDS011;2088;51.032;7.082;2023-04-20T06:40:22;12.47;;;4.70;;
4148;SDS011;2088;51.032;7.082;2023-04-20T06:42:49;11.23;;;4.33;;
4148;SDS011;2088;51.032;7.082;2023-04-20T06:45:16;4.63;;;4.13;;
4148;SDS011;2088;51.032;7.082;2023-04-20T06:47:43;8.17;;;4.50;;
4148;SDS011;2088;51.032;7.082;2023-04-20T06:50:12;5.00;;;3.77;;
4148;SDS011;2088;51.032;7.082;2023-04-20T06:52:39;6.20;;;3.87;;
4148;SDS011;2088;51.032;7.082;2023-04-20T06:55:06;4.87;;;3.60;;
4148;SDS011;2088;51.032;7.082;2023-04-20T06:57:34;4.30;;;3.60;;
4148;SDS011;2088;51.032;7.082;2023-04-20T07:00:02;4.93;;;4.40;;
4148;SDS011;2088;51.032;7.082;2023-04-20T07:02:30;6.07;;;4.17;;
4148;SDS011;2088;51.032;7.082;2023-04-20T07:05:07;5.23;;;4.17;;
4148;SDS011;2088;51.032;7.082;2023-04-20T07:07:35;3.93;;;3.40;;
4148;SDS011;2088;51.032;7.082;2023-04-20T07:10:02;6.00;;;3.47;;
4148;SDS011;2088;51.032;7.082;2023-04-20T07:12:30;6.23;;;4.03;;
4148;SDS011;2088;51.032;7.082;2023-04-20T07:14:57;5.73;;;3.60;;
4148;SDS011;2088;51.032;7.082;2023-04-20T07:17:26;4.27;;;3.50;;
4148;SDS011;2088;51.032;7.082;2023-04-20T07:19:53;4.33;;;3.00;;
4148;SDS011;2088;51.032;7.082;2023-04-20T07:22:20;9.00;;;3.70;;
4148;SDS011;2088;51.032;7.082;2023-04-20T07:24:48;4.53;;;3.23;;
4148;SDS011;2088;51.032;7.082;2023-04-20T07:27:16;5.37;;;3.33;;
4148;SDS011;2088;51.032;7.082;2023-04-20T07:29:43;5.70;;;3.50;;
4148;SDS011;2088;51.032;7.082;2023-04-20T07:32:10;7.20;;;2.80;;
4148;SDS011;2088;51.032;7.082;2023-04-20T07:34:38;3.17;;;2.90;;
4148;SDS011;2088;51.032;7.082;2023-04-20T07:37:05;3.03;;;2.83;;
4148;SDS011;2088;51.032;7.082;2023-04-20T07:39:32;5.17;;;3.30;;
4148;SDS011;2088;51.032;7.082;2023-04-20T07:42:02;4.93;;;2.77;;
4148;SDS011;2088;51.032;7.082;2023-04-20T07:44:29;5.10;;;2.80;;
4148;SDS011;2088;51.032;7.082;2023-04-20T07:46:56;2.53;;;2.33;;
4148;SDS011;2088;51.032;7.082;2023-04-20T07:49:23;2.80;;;2.60;;
4148;SDS011;2088;51.032;7.082;2023-04-20T07:51:50;3.50;;;2.90;;
4148;SDS011;2088;51.032;7.082;2023-04-20T07:54:18;2.70;;;2.43;;
4148;SDS011;2088;51.032;7.082;2023-04-20T07:56:45;2.30;;;2.10;;
4148;SDS011;2088;51.032;7.082;2023-04-20T07:59:13;3.00;;;2.40;;
4148;SDS011;2088;51.032;7.082;2023-04-20T08:01:40;2.77;;;2.53;;
4148;SDS011;2088;51.032;7.082;2023-04-20T08:04:07;3.80;;;3.50;;
4148;SDS011;2088;51.032;7.082;2023-04-20T08:06:34;3.20;;;2.77;;
4148;SDS011;2088;51.032;7.082;2023-04-20T08:09:01;2.30;;;2.10;;
4148;SDS011;2088;51.032;7.082;2023-04-20T08:11:29;4.73;;;2.70;;
4148;SDS011;2088;51.032;7.082;2023-04-20T08:13:56;2.47;;;2.27;;
4148;SDS011;2088;51.032;7.082;2023-04-20T08:16:24;2.13;;;1.93;;
4148;SDS011;2088;51.032;7.082;2023-04-20T08:18:51;2.60;;;2.40;;
4148;SDS011;2088;51.032;7.082;2023-04-20T08:21:18;3.13;;;2.60;;
4148;SDS011;2088;51.032;7.082;2023-04-20T08:23:47;2.97;;;2.60;;
4148;SDS011;2088;51.032;7.082;2023-04-20T08:26:15;7.43;;;2.50;;
4148;SDS011;2088;51.032;7.082;2023-04-20T08:28:42;2.93;;;2.73;;
4148;SDS011;2088;51.032;7.082;2023-04-20T08:31:10;2.40;;;2.20;;
4148;SDS011;2088;51.032;7.082;2023-04-20T08:33:39;3.07;;;2.67;;
4148;SDS011;2088;51.032;7.082;2023-04-20T08:36:06;2.40;;;2.20;;
4148;SDS011;2088;51.032;7.082;2023-04-20T08:38:33;3.13;;;2.83;;
4148;SDS011;2088;51.032;7.082;2023-04-20T08:41:00;2.37;;;2.17;;
4148;SDS011;2088;51.032;7.082;2023-04-20T08:43:27;4.30;;;3.17;;
4148;SDS011;2088;51.032;7.082;2023-04-20T08:45:56;3.47;;;3.17;;
4148;SDS011;2088;51.032;7.082;2023-04-20T08:48:23;2.67;;;2.47;;
4148;SDS011;2088;51.032;7.082;2023-04-20T08:50:52;4.07;;;3.13;;
4148;SDS011;2088;51.032;7.082;2023-04-20T08:53:20;3.70;;;2.83;;
4148;SDS011;2088;51.032;7.082;2023-04-20T08:55:47;2.93;;;2.67;;
4148;SDS011;2088;51.032;7.082;2023-04-20T08:58:15;6.27;;;3.13;;
4148;SDS011;2088;51.032;7.082;2023-04-20T09:00:46;6.70;;;3.73;;
4148;SDS011;2088;51.032;7.082;2023-04-20T09:03:13;2.77;;;2.57;;
4148;SDS011;2088;51.032;7.082;2023-04-20T09:05:40;5.23;;;3.23;;
4148;SDS011;2088;51.032;7.082;2023-04-20T09:08:08;3.10;;;2.80;;
4148;SDS011;2088;51.032;7.082;2023-04-20T09:10:40;3.07;;;2.80;;
4148;SDS011;2088;51.032;7.082;2023-04-20T09:13:07;2.97;;;2.57;;
4148;SDS011;2088;51.032;7.082;2023-04-20T09:15:34;3.40;;;2.43;;
4148;SDS011;2088;51.032;7.082;2023-04-20T09:18:10;2.00;;;1.90;;
4148;SDS011;2088;51.032;7.082;2023-04-20T09:20:38;2.13;;;1.93;;
4148;SDS011;2088;51.032;7.082;2023-04-20T09:23:13;3.60;;;2.30;;
4148;SDS011;2088;51.032;7.082;2023-04-20T09:25:40;2.00;;;1.80;;
4148;SDS011;2088;51.032;7.082;2023-04-20T09:28:09;5.47;;;2.10;;
4148;SDS011;2088;51.032;7.082;2023-04-20T09:30:37;2.87;;;2.40;;
4148;SDS011;2088;51.032;7.082;2023-04-20T09:33:04;1.70;;;1.57;;
4148;SDS011;2088;51.032;7.082;2023-04-20T09:35:34;1.97;;;1.87;;
4148;SDS011;2088;51.032;7.082;2023-04-20T09:38:02;2.40;;;1.97;;
4148;SDS011;2088;51.032;7.082;2023-04-20T09:40:30;2.10;;;2.00;;
4148;SDS011;2088;51.032;7.082;2023-04-20T09:42:58;2.20;;;2.10;;
4148;SDS011;2088;51.032;7.082;2023-04-20T09:45:27;1.83;;;1.70;;
4148;SDS011;2088;51.032;7.082;2023-04-20T09:47:54;3.53;;;1.97;;
4148;SDS011;2088;51.032;7.082;2023-04-20T09:50:21;1.53;;;1.43;;
4148;SDS011;2088;51.032;7.082;2023-04-20T09:52:48;1.30;;;1.17;;
4148;SDS011;2088;51.032;7.082;2023-04-20T09:55:15;1.27;;;1.17;;
4148;SDS011;2088;51.032;7.082;2023-04-20T09:57:44;0.80;;;0.70;;
4148;SDS011;2088;51.032;7.082;2023-04-20T10:00:11;0.80;;;0.70;;
4148;SDS011;2088;51.032;7.082;2023-04-20T10:02:38;1.00;;;0.90;;
4148;SDS011;2088;51.032;7.082;2023-04-20T10:05:07;0.90;;;0.80;;
4148;SDS011;2088;51.032;7.082;2023-04-20T10:07:35;1.00;;;0.90;;
4148;SDS011;2088;51.032;7.082;2023-04-20T10:10:05;1.40;;;1.00;;
4148;SDS011;2088;51.032;7.082;2023-04-20T10:12:33;0.80;;;0.80;;
4148;SDS011;2088;51.032;7.082;2023-04-20T10:15:02;1.30;;;1.17;;
4148;SDS011;2088;51.032;7.082;2023-04-20T10:17:29;1.30;;;0.90;;
4148;SDS011;2088;51.032;7.082;2023-04-20T10:19:57;1.00;;;0.90;;
4148;SDS011;2088;51.032;7.082;2023-04-20T10:22:24;0.97;;;0.87;;
4148;SDS011;2088;51.032;7.082;2023-04-20T10:24:54;1.00;;;0.90;;
4148;SDS011;2088;51.032;7.082;2023-04-20T10:27:21;0.80;;;0.70;;
4148;SDS011;2088;51.032;7.082;2023-04-20T10:29:48;1.10;;;1.00;;
4148;SDS011;2088;51.032;7.082;2023-04-20T10:32:23;0.87;;;0.70;;
4148;SDS011;2088;51.032;7.082;2023-04-20T10:35:00;0.87;;;0.80;;
4148;SDS011;2088;51.032;7.082;2023-04-20T10:37:28;0.90;;;0.70;;
4148;SDS011;2088;51.032;7.082;2023-04-20T10:39:56;0.90;;;0.80;;
4148;SDS011;2088;51.032;7.082;2023-04-20T10:42:23;1.00;;;0.80;;
4148;SDS011;2088;51.032;7.082;2023-04-20T10:44:52;1.00;;;0.63;;
4148;SDS011;2088;51.032;7.082;2023-04-20T10:47:26;1.43;;;0.80;;
4148;SDS011;2088;51.032;7.082;2023-04-20T10:49:53;0.80;;;0.70;;
4148;SDS011;2088;51.032;7.082;2023-04-20T10:52:30;0.80;;;0.60;;
4148;SDS011;2088;51.032;7.082;2023-04-20T10:54:58;0.80;;;0.80;;
4148;SDS011;2088;51.032;7.082;2023-04-20T10:57:25;2.53;;;0.80;;
4148;SDS011;2088;51.032;7.082;2023-04-20T10:59:52;1.13;;;0.90;;
4148;SDS011;2088;51.032;7.082;2023-04-20T11:02:19;1.00;;;0.90;;
4148;SDS011;2088;51.032;7.082;2023-04-20T11:04:48;1.20;;;0.70;;
4148;SDS011;2088;51.032;7.082;2023-04-20T11:07:15;0.80;;;0.60;;
4148;SDS011;2088;51.032;7.082;2023-04-20T11:09:42;7.50;;;0.70;;
4148;SDS011;2088;51.032;7.082;2023-04-20T11:12:10;0.80;;;0.70;;
4148;SDS011;2088;51.032;7.082;2023-04-20T11:14:49;1.00;;;0.90;;
4148;SDS011;2088;51.032;7.082;2023-04-20T11:17:16;1.07;;;0.87;;
4148;SDS011;2088;51.032;7.082;2023-04-20T11:19:43;1.00;;;0.80;;
4148;SDS011;2088;51.032;7.082;2023-04-20T11:22:20;2.17;;;1.00;;
4148;SDS011;2088;51.032;7.082;2023-04-20T11:24:47;1.00;;;0.90;;
4148;SDS011;2088;51.032;7.082;2023-04-20T11:27:18;0.90;;;0.80;;
4148;SDS011;2088;51.032;7.082;2023-04-20T11:29:54;1.10;;;0.70;;
4148;SDS011;2088;51.032;7.082;2023-04-20T11:32:21;0.90;;;0.80;;
4148;SDS011;2088;51.032;7.082;2023-04-20T11:34:56;1.50;;;1.07;;
4148;SDS011;2088;51.032;7.082;2023-04-20T11:37:26;1.10;;;1.00;;
4148;SDS011;2088;51.032;7.082;2023-04-20T11:40:00;1.57;;;1.30;;
4148;SDS011;2088;51.032;7.082;2023-04-20T11:42:28;1.73;;;1.60;;
4148;SDS011;2088;51.032;7.082;2023-04-20T11:44:55;1.60;;;1.50;;
4148;SDS011;2088;51.032;7.082;2023-04-20T11:47:22;2.33;;;1.50;;
4148;SDS011;2088;51.032;7.082;2023-04-20T11:49:49;3.03;;;2.00;;
4148;SDS011;2088;51.032;7.082;2023-04-20T11:52:16;2.20;;;2.00;;
4148;SDS011;2088;51.032;7.082;2023-04-20T11:54:45;6.63;;;2.13;;
4148;SDS011;2088;51.032;7.082;2023-04-20T11:57:12;2.27;;;2.00;;
4148;SDS011;2088;51.032;7.082;2023-04-20T11:59:39;2.10;;;1.90;;
4148;SDS011;2088;51.032;7.082;2023-04-20T12:02:07;1.97;;;1.77;;
4148;SDS011;2088;51.032;7.082;2023-04-20T12:04:34;2.00;;;1.80;;
4148;SDS011;2088;51.032;7.082;2023-04-20T12:07:02;2.40;;;1.80;;
4148;SDS011;2088;51.032;7.082;2023-04-20T12:09:29;3.63;;;1.90;;
4148;SDS011;2088;51.032;7.082;2023-04-20T12:12:01;3.43;;;2.07;;
4148;SDS011;2088;51.032;7.082;2023-04-20T12:14:28;2.37;;;1.80;;
4148;SDS011;2088;51.032;7.082;2023-04-20T12:16:57;2.40;;;2.20;;
4148;SDS011;2088;51.032;7.082;2023-04-20T12:19:24;2.23;;;2.03;;
4148;SDS011;2088;51.032;7.082;2023-04-20T12:21:51;4.10;;;2.40;;
4148;SDS011;2088;51.032;7.082;2023-04-20T12:24:18;2.20;;;1.80;;
4148;SDS011;2088;51.032;7.082;2023-04-20T12:26:45;4.10;;;2.70;;
4148;SDS011;2088;51.032;7.082;2023-04-20T12:29:13;4.43;;;2.80;;
4148;SDS011;2088;51.032;7.082;2023-04-20T12:31:41;2.90;;;2.60;;
4148;SDS011;2088;51.032;7.082;2023-04-20T12:34:08;3.83;;;2.37;;
4148;SDS011;2088;51.032;7.082;2023-04-20T12:36:35;2.77;;;2.57;;
4148;SDS011;2088;51.032;7.082;2023-04-20T12:39:02;3.40;;;2.70;;
4148;SDS011;2088;51.032;7.082;2023-04-20T12:41:29;4.30;;;3.30;;
4148;SDS011;2088;51.032;7.082;2023-04-20T12:43:57;5.17;;;3.90;;
4148;SDS011;2088;51.032;7.082;2023-04-20T12:46:25;2.57;;;2.37;;
4148;SDS011;2088;51.032;7.082;2023-04-20T12:48:52;3.20;;;2.90;;
4148;SDS011;2088;51.032;7.082;2023-04-20T12:51:20;7.27;;;2.40;;
4148;SDS011;2088;51.032;7.082;2023-04-20T12:53:47;9.23;;;3.37;;
4148;SDS011;2088;51.032;7.082;2023-04-20T12:56:14;6.17;;;3.37;;
4148;SDS011;2088;51.032;7.082;2023-04-20T12:58:41;5.80;;;3.53;;
4148;SDS011;2088;51.032;7.082;2023-04-20T13:01:08;9.20;;;3.30;;
4148;SDS011;2088;51.032;7.082;2023-04-20T13:03:36;4.50;;;3.20;;
4148;SDS011;2088;51.032;7.082;2023-04-20T13:06:04;3.60;;;3.30;;
4148;SDS011;2088;51.032;7.082;2023-04-20T13:08:31;4.57;;;3.00;;
4148;SDS011;2088;51.032;7.082;2023-04-20T13:10:58;5.07;;;4.03;;
4148;SDS011;2088;51.032;7.082;2023-04-20T13:13:25;4.30;;;2.97;;
4148;SDS011;2088;51.032;7.082;2023-04-20T13:15:52;6.80;;;3.77;;
4148;SDS011;2088;51.032;7.082;2023-04-20T13:18:19;4.97;;;3.30;;
4148;SDS011;2088;51.032;7.082;2023-04-20T13:20:49;4.43;;;3.30;;
4148;SDS011;2088;51.032;7.082;2023-04-20T13:23:16;4.60;;;3.47;;
4148;SDS011;2088;51.032;7.082;2023-04-20T13:25:43;4.10;;;2.87;;
4148;SDS011;2088;51.032;7.082;2023-04-20T13:28:10;3.13;;;2.83;;
4148;SDS011;2088;51.032;7.082;2023-04-20T13:30:37;4.87;;;4.07;;
4148;SDS011;2088;51.032;7.082;2023-04-20T13:33:04;2.53;;;2.20;;
4148;SDS011;2088;51.032;7.082;2023-04-20T13:35:32;4.27;;;3.00;;
4148;SDS011;2088;51.032;7.082;2023-04-20T13:38:01;9.17;;;3.30;;
4148;SDS011;2088;51.032;7.082;2023-04-20T13:40:28;4.53;;;2.60;;
4148;SDS011;2088;51.032;7.082;2023-04-20T13:42:55;8.33;;;3.00;;
4148;SDS011;2088;51.032;7.082;2023-04-20T13:45:22;4.30;;;3.13;;
4148;SDS011;2088;51.032;7.082;2023-04-20T13:47:49;3.10;;;2.80;;
4148;SDS011;2088;51.032;7.082;2023-04-20T13:50:16;3.13;;;2.93;;
4148;SDS011;2088;51.032;7.082;2023-04-20T13:52:43;7.17;;;3.27;;
4148;SDS011;2088;51.032;7.082;2023-04-20T13:55:12;3.83;;;3.03;;
4148;SDS011;2088;51.032;7.082;2023-04-20T13:57:39;2.90;;;2.70;;
4148;SDS011;2088;51.032;7.082;2023-04-20T14:00:06;6.40;;;2.97;;
4148;SDS011;2088;51.032;7.082;2023-04-20T14:02:34;2.90;;;2.60;;
4148;SDS011;2088;51.032;7.082;2023-04-20T14:05:01;3.80;;;3.00;;
4148;SDS011;2088;51.032;7.082;2023-04-20T14:07:30;4.00;;;3.50;;
4148;SDS011;2088;51.032;7.082;2023-04-20T14:09:57;4.40;;;3.67;;
4148;SDS011;2088;51.032;7.082;2023-04-20T14:12:26;3.03;;;2.80;;
4148;SDS011;2088;51.032;7.082;2023-04-20T14:14:55;3.03;;;2.73;;
4148;SDS011;2088;51.032;7.082;2023-04-20T14:17:22;4.40;;;3.37;;
4148;SDS011;2088;51.032;7.082;2023-04-20T14:19:49;6.33;;;3.00;;
4148;SDS011;2088;51.032;7.082;2023-04-20T14:22:16;5.47;;;3.13;;
4148;SDS011;2088;51.032;7.082;2023-04-20T14:24:43;4.43;;;3.50;;
4148;SDS011;2088;51.032;7.082;2023-04-20T14:27:11;3.97;;;3.47;;
4148;SDS011;2088;51.032;7.082;2023-04-20T14:29:40;9.60;;;3.63;;
4148;SDS011;2088;51.032;7.082;2023-04-20T14:32:07;5.33;;;2.90;;
4148;SDS011;2088;51.032;7.082;2023-04-20T14:34:34;4.77;;;3.83;;
4148;SDS011;2088;51.032;7.082;2023-04-20T14:37:01;18.43;;;5.80;;
4148;SDS011;2088;51.032;7.082;2023-04-20T14:39:28;4.90;;;3.57;;
4148;SDS011;2088;51.032;7.082;2023-04-20T14:41:55;6.60;;;3.87;;
4148;SDS011;2088;51.032;7.082;2023-04-20T14:44:22;7.30;;;3.43;;
4148;SDS011;2088;51.032;7.082;2023-04-20T14:46:50;4.10;;;2.93;;
4148;SDS011;2088;51.032;7.082;2023-04-20T14:49:18;5.60;;;3.40;;
4148;SDS011;2088;51.032;7.082;2023-04-20T14:51:45;5.50;;;3.60;;
4148;SDS011;2088;51.032;7.082;2023-04-20T14:54:12;4.40;;;3.90;;
4148;SDS011;2088;51.032;7.082;2023-04-20T14:56:39;3.73;;;3.40;;
4148;SDS011;2088;51.032;7.082;2023-04-20T14:59:06;4.00;;;3.13;;
4148;SDS011;2088;51.032;7.082;2023-04-20T15:01:33;4.07;;;3.67;;
4148;SDS011;2088;51.032;7.082;2023-04-20T15:04:01;5.10;;;3.87;;
4148;SDS011;2088;51.032;7.082;2023-04-20T15:06:28;3.73;;;3.23;;
4148;SDS011;2088;51.032;7.082;2023-04-20T15:08:56;4.20;;;3.37;;
4148;SDS011;2088;51.032;7.082;2023-04-20T15:11:23;4.27;;;3.87;;
4148;SDS011;2088;51.032;7.082;2023-04-20T15:13:50;3.97;;;2.77;;
4148;SDS011;2088;51.032;7.082;2023-04-20T15:16:18;4.23;;;3.60;;
4148;SDS011;2088;51.032;7.082;2023-04-20T15:18:45;4.93;;;3.63;;